Time;durP1;ratioP1;P1;durP2;ratioP2;P2;SDS_P1;SDS_P2;PMS_P1;PMS_P2;Temp;Humidity;BMP_temperature;BMP_pressure;BME280_temperature;BME280_humidity;BME280_pressure;Samples;Min_cycle;Max_cycle;Signal;HPM_P1;HPM_P2
2021/12/04 00:02:37;;;;;;;44.50;20.67;;;;;;;1.46;100.00;99854.41;10485088;28;20064;-86
2021/12/04 00:07:38;;;;;;;48.03;23.65;;;;;;;-0.62;100.00;99567.66;10468076;28;20019;-86
2021/12/04 00:12:39;;;;;;;45.00;23.50;;;;;;;1.49;100.00;99913.63;10468916;28;20042;-86
2021/12/04 00:17:39;;;;;;;41.60;21.58;;;;;;;-0.27;100.00;99456.44;10468507;28;20021;-86
2021/12/04 00:22:40;;;;;;;48.57;23.50;;;;;;;1.57;100.00;99786.72;10453517;28;20028;-92
2021/12/04 00:27:41;;;;;;;47.83;23.33;;;;;;;-1.24;100.00;99318.75;10502626;28;20031;-93
2021/12/04 00:32:44;;;;;;;51.77;23.27;;;;;;;-1.62;100.00;99253.94;10489043;28;20029;-93
2021/12/04 00:53:49;;;;;;;57.10;24.80;;;;;;;-0.52;100.00;99420.38;10451127;28;20043;-86
2021/12/04 00:58:52;;;;;;;60.47;26.75;;;;;;;0.37;100.00;99665.63;10466523;28;20024;-86
2021/12/04 01:03:52;;;;;;;59.97;26.30;;;;;;;-2.63;100.00;99177.09;10450658;28;20445;-86
2021/12/04 01:08:53;;;;;;;57.23;26.47;;;;;;;-0.31;100.00;99503.03;10449723;28;20119;-86
2021/12/04 01:13:53;;;;;;;56.80;25.50;;;;;;;0.85;100.00;99788.06;10465516;28;20024;-86
2021/12/04 01:18:54;;;;;;;73.73;28.50;;;;;;;0.34;100.00;99689.59;10449450;28;20469;-86
2021/12/04 01:23:55;;;;;;;65.00;26.20;;;;;;;0.02;100.00;99467.63;10467257;28;20051;-92
2021/12/04 01:28:56;;;;;;;68.40;27.33;;;;;;;0.41;100.00;99582.06;10467621;28;20465;-92
2021/12/04 01:33:56;;;;;;;70.53;27.40;;;;;;;2.93;100.00;100047.63;10451032;28;20021;-92
2021/12/04 01:38:57;;;;;;;65.25;26.70;;;;;;;-0.03;100.00;99724.53;10428963;28;20064;-92
2021/12/04 01:43:58;;;;;;;64.68;26.77;;;;;;;1.25;100.00;99734.41;10393768;28;20067;-93
2021/12/04 01:48:58;;;;;;;70.23;28.57;;;;;;;-0.69;100.00;99404.69;10392946;28;20021;-93
2021/12/04 01:53:59;;;;;;;67.53;26.25;;;;;;;-1.42;100.00;99408.53;10391423;28;20123;-86
2021/12/04 01:59:00;;;;;;;65.68;27.70;;;;;;;0.97;100.00;99895.59;10422565;28;20076;-86
2021/12/04 02:04:01;;;;;;;78.87;27.07;;;;;;;-0.54;100.00;99460.31;10405751;28;20036;-86
2021/12/04 02:09:01;;;;;;;75.83;28.23;;;;;;;0.33;100.00;99713.16;10406423;28;20451;-86
2021/12/04 02:14:02;;;;;;;66.72;25.60;;;;;;;0.68;100.00;99733.56;10390723;28;20557;-92
2021/12/04 02:19:02;;;;;;;77.35;28.85;;;;;;;-3.50;100.00;98918.88;10408849;28;20461;-92
2021/12/04 02:24:03;;;;;;;63.80;23.70;;;;;;;0.05;100.00;99521.34;10391793;28;20194;-92
2021/12/04 02:29:04;;;;;;;67.63;25.60;;;;;;;-1.55;100.00;99216.97;10408728;28;20139;-93
2021/12/04 02:34:06;;;;;;;72.53;25.87;;;;;;;-1.09;100.00;99313.06;10391849;28;20021;-92
2021/12/04 02:39:07;;;;;;;72.47;26.52;;;;;;;0.33;100.00;99585.91;10464511;28;20048;-92
2021/12/04 02:44:07;;;;;;;68.57;25.38;;;;;;;1.32;100.00;99778.56;10449545;28;20056;-93
2021/12/04 02:49:09;;;;;;;73.53;27.40;;;;;;;-2.69;100.00;99159.94;10448625;28;20036;-87
2021/12/04 02:54:11;;;;;;;61.10;25.20;;;;;;;-1.68;100.00;99238.59;10463530;28;20074;-86
2021/12/04 02:59:12;;;;;;;68.15;26.45;;;;;;;0.15;100.00;99665.13;10447086;28;20028;-86
2021/12/04 03:04:13;;;;;;;60.28;24.80;;;;;;;0.44;100.00;99554.56;10462329;28;20012;-86
2021/12/04 03:09:16;;;;;;;52.47;23.40;;;;;;;-2.67;100.00;99095.06;10463304;28;20372;-86
2021/12/04 03:14:17;;;;;;;55.00;23.30;;;;;;;-0.46;100.00;99479.00;10467761;28;20120;-86
2021/12/04 03:19:18;;;;;;;57.77;24.13;;;;;;;-1.04;100.00;99283.50;10487418;28;20016;-86
2021/12/04 03:24:19;;;;;;;48.47;22.85;;;;;;;1.45;100.00;99662.88;10456005;28;20041;-92
2021/12/04 03:29:22;;;;;;;54.38;21.48;;;;;;;0.29;100.00;99535.09;10455819;28;20028;-92
2021/12/04 03:45:01;;;;;;;44.53;20.47;;;;;;;0.68;100.00;99611.66;10433797;28;20029;-86
2021/12/04 03:50:01;;;;;;;39.00;18.58;;;;;;;-0.47;100.00;99466.53;10395763;28;20480;-86
2021/12/04 03:55:05;;;;;;;41.83;18.80;;;;;;;-2.01;100.00;99026.53;10411701;28;20135;-86
2021/12/04 04:00:07;;;;;;;38.10;18.80;;;;;;;-3.83;100.00;98928.88;10412190;28;20112;-86
2021/12/04 04:05:07;;;;;;;35.88;17.45;;;;;;;2.08;100.00;99917.78;10410709;28;20021;-86
2021/12/04 04:10:08;;;;;;;35.30;17.02;;;;;;;-0.67;100.00;99358.53;10394845;28;20021;-86
2021/12/04 04:15:09;;;;;;;35.95;17.63;;;;;;;-1.33;100.00;99244.44;10411287;28;20031;-86
2021/12/04 04:20:11;;;;;;;34.65;17.73;;;;;;;-0.98;100.00;99378.25;10395101;28;20124;-93
2021/12/04 04:25:12;;;;;;;30.07;15.57;;;;;;;-2.10;100.00;99178.84;10412350;28;20028;-92
2021/12/04 04:30:15;;;;;;;33.47;16.03;;;;;;;0.21;100.00;99473.97;10412298;28;20029;-92
2021/12/04 04:35:19;;;;;;;37.40;19.93;;;;;;;-0.96;100.00;99462.59;10427229;28;20124;-86
2021/12/04 05:12:48;;;;;;;42.57;18.60;;;;;;;-3.14;100.00;98932.81;10353725;28;20033;-91
2021/12/04 05:22:49;;;;;;;36.53;17.30;;;;;;;0.34;100.00;99508.22;10354009;28;20037;-93
2021/12/04 05:27:50;;;;;;;32.80;16.85;;;;;;;2.75;100.00;99841.88;10316315;28;20034;-92
2021/12/04 05:32:50;;;;;;;40.70;17.85;;;;;;;-1.19;100.00;99306.47;10397991;28;20108;-93
2021/12/04 05:37:51;;;;;;;39.78;16.85;;;;;;;-2.03;100.00;99082.53;10444224;28;20040;-93
2021/12/04 05:42:59;;;;;;;43.23;17.10;;;;;;;-1.38;100.00;99217.28;10451619;28;20427;-92
2021/12/04 05:48:05;;;;;;;41.50;16.65;;;;;;;-3.35;100.00;98866.66;10453139;28;20123;-92
2021/12/04 05:53:19;;;;;;;40.23;16.87;;;;;;;-1.15;100.00;99378.75;10451895;28;20086;-92
2021/12/04 05:58:25;;;;;;;37.38;16.13;;;;;;;-0.65;100.00;99519.44;10454490;28;20035;-92
2021/12/04 06:03:25;;;;;;;47.65;17.83;;;;;;;-3.53;100.00;98942.69;10450069;28;20115;-91
2021/12/04 06:08:26;;;;;;;40.43;17.53;;;;;;;-0.66;100.00;99208.84;10449892;28;20085;-93
2021/12/04 06:13:27;;;;;;;43.35;18.02;;;;;;;-1.26;100.00;99295.69;10466215;28;20078;-92
2021/12/04 06:18:27;;;;;;;41.37;17.97;;;;;;;-1.36;100.00;99150.41;10449464;28;20025;-89
2021/12/04 06:23:28;;;;;;;44.33;17.77;;;;;;;-2.14;100.00;98953.81;10450046;28;20020;-92
2021/12/04 06:28:29;;;;;;;47.53;17.13;;;;;;;-0.35;100.00;99408.00;10440975;28;20028;-87
2021/12/04 06:33:29;;;;;;;40.13;17.48;;;;;;;-3.19;100.00;98957.69;10420807;28;20017;-86
2021/12/04 06:38:30;;;;;;;46.93;17.63;;;;;;;-0.29;100.00;99262.97;10421062;28;20076;-86
2021/12/04 06:43:31;;;;;;;47.93;17.57;;;;;;;-1.31;100.00;99255.03;10404189;28;20123;-86
2021/12/04 06:48:42;;;;;;;51.93;18.50;;;;;;;-3.33;100.00;98982.97;10403304;28;20458;-86
2021/12/04 06:58:46;;;;;;;45.80;17.73;;;;;;;-0.38;100.00;99437.34;10424494;28;20087;-94
2021/12/04 07:03:47;;;;;;;56.85;19.27;;;;;;;-3.66;100.00;98962.34;10408197;28;20428;-93
2021/12/04 07:08:49;;;;;;;54.22;18.80;;;;;;;-0.02;100.00;99434.81;10407372;28;20032;-93
2021/12/04 07:13:54;;;;;;;53.00;19.50;;;;;;;0.04;100.00;99407.91;10424089;28;20535;-93
2021/12/04 07:18:59;;;;;;;41.72;17.27;;;;;;;0.50;100.00;99444.56;10424721;28;20033;-94
2021/12/04 07:24:00;;;;;;;51.20;18.45;;;;;;;-0.55;100.00;99393.81;10408463;28;20481;-86
2021/12/04 07:29:01;;;;;;;49.40;19.80;;;;;;;-2.56;100.00;98985.78;10419571;28;20033;-87
2021/12/04 07:34:09;;;;;;;55.92;20.20;;;;;;;-0.73;100.00;99325.09;10420336;28;20092;-87
2021/12/04 07:39:12;;;;;;;54.53;20.00;;;;;;;1.10;100.00;99463.69;10403250;28;20056;-87
2021/12/04 07:44:12;;;;;;;56.38;20.38;;;;;;;-2.02;100.00;99086.91;10403894;28;20432;-90
2021/12/04 07:49:15;;;;;;;53.23;20.27;;;;;;;-1.29;100.00;99115.25;10403481;28;20048;-87
2021/12/04 07:54:16;;;;;;;46.03;18.47;;;;;;;-1.19;100.00;99085.06;10419574;28;20477;-86
2021/12/04 07:59:17;;;;;;;59.55;22.77;;;;;;;-0.17;100.00;99493.78;10438198;28;20055;-86
2021/12/04 08:04:18;;;;;;;46.13;19.80;;;;;;;-3.46;100.00;98973.91;10410097;28;20120;-86
2021/12/04 08:09:19;;;;;;;56.50;21.50;;;;;;;-0.32;100.00;99360.75;10427001;28;20108;-91
2021/12/04 08:14:20;;;;;;;48.47;20.03;;;;;;;-2.35;100.00;99104.06;10412450;28;20107;-91
2021/12/04 08:19:20;;;;;;;47.30;22.30;;;;;;;-0.19;100.00;99267.88;10413575;28;20453;-91
2021/12/04 08:24:28;;;;;;;46.33;20.83;;;;;;;-2.31;100.00;99023.63;10412550;28;20021;-91
2021/12/04 08:29:29;;;;;;;42.83;16.70;;;;;;;-1.00;100.00;99123.72;10417620;28;20468;-91
2021/12/04 08:34:30;;;;;;;42.63;19.97;;;;;;;-2.63;100.00;98948.13;10409667;28;20395;-91
2021/12/04 08:39:30;;;;;;;40.63;18.58;;;;;;;-2.89;100.00;99014.53;10392872;28;20096;-91
2021/12/04 08:44:32;;;;;;;39.65;17.55;;;;;;;1.76;100.00;99583.25;10392937;28;20040;-91
2021/12/04 08:49:33;;;;;;;34.17;16.52;;;;;;;-3.67;100.00;98793.97;10389580;28;20167;-86
2021/12/04 08:54:35;;;;;;;31.75;15.57;;;;;;;-4.31;100.00;98670.16;10420736;28;20072;-86
2021/12/04 08:59:36;;;;;;;30.23;15.35;;;;;;;-0.12;100.00;99339.78;10391871;28;20041;-86
2021/12/04 09:04:36;;;;;;;29.55;14.50;;;;;;;-0.76;100.00;99166.09;10424269;28;20031;-91
2021/12/04 09:09:37;;;;;;;33.50;16.37;;;;;;;-1.27;100.00;99105.06;10410848;28;20021;-91
2021/12/04 09:14:41;;;;;;;27.17;14.07;;;;;;;-1.32;100.00;99110.31;10410399;28;20556;-90
2021/12/04 09:19:42;;;;;;;27.30;15.82;;;;;;;-0.70;100.00;99167.91;10411130;28;20063;-94
2021/12/04 09:24:46;;;;;;;37.85;17.48;;;;;;;0.14;100.00;99276.44;10426558;28;20078;-92
2021/12/04 09:35:05;;;;;;;34.63;15.18;;;;;;;0.05;100.00;99293.22;10426229;28;20048;-93
2021/12/04 10:01:51;;;;;;;28.73;14.13;;;;;;;2.07;100.00;99497.19;10442138;28;20406;-93
2021/12/04 10:33:57;;;;;;;29.55;13.95;;;;;;;-1.06;100.00;98977.69;10429987;28;20063;-93
2021/12/04 10:38:58;;;;;;;35.15;15.73;;;;;;;-0.31;100.00;99044.16;10408406;28;20060;-92
2021/12/04 10:44:20;;;;;;;42.58;20.10;;;;;;;2.19;100.00;99463.59;10408333;28;20032;-91
2021/12/04 10:49:46;;;;;;;45.63;20.35;;;;;;;3.68;100.00;99583.84;10408205;28;20411;-92
2021/12/04 10:54:51;;;;;;;45.13;18.98;;;;;;;2.51;100.00;99511.34;10440523;28;20037;-93
2021/12/04 11:00:07;;;;;;;56.92;20.50;;;;;;;-0.38;100.00;99129.94;10408644;28;20040;-92
2021/12/04 11:21:44;;;;;;;50.38;21.15;;;;;;;2.31;100.00;99406.56;10428757;28;20035;-94
2021/12/04 11:42:48;;;;;;;53.22;21.90;;;;;;;0.99;100.00;99362.31;10432091;28;20052;-85
2021/12/04 11:47:57;;;;;;;49.47;22.30;;;;;;;0.22;100.00;99174.38;10445699;28;20036;-92
2021/12/04 11:53:01;;;;;;;53.28;22.42;;;;;;;-0.16;100.00;98978.84;10413009;28;20021;-93
2021/12/04 11:58:02;;;;;;;52.58;22.10;;;;;;;2.03;100.00;99328.56;10413765;28;20102;-90
2021/12/04 12:03:13;;;;;;;54.50;21.17;;;;;;;3.65;100.00;99524.44;10427163;28;20025;-85
2021/12/04 12:08:21;;;;;;;52.15;23.48;;;;;;;3.24;100.00;99447.44;10426115;28;20021;-86
2021/12/04 12:13:35;;;;;;;48.22;22.13;;;;;;;-0.82;100.00;98886.00;10426049;28;20431;-91
2021/12/04 12:19:08;;;;;;;51.10;22.58;;;;;;;3.65;100.00;99502.66;10446676;28;20487;-91
2021/12/04 12:24:22;;;;;;;52.78;23.52;;;;;;;-0.34;100.00;98984.31;10456051;28;20044;-92
2021/12/04 12:40:16;;;;;;;47.88;21.00;;;;;;;-2.20;100.00;98574.63;10443083;28;20462;-86
2021/12/04 12:45:17;;;;;;;47.30;21.30;;;;;;;0.68;100.00;99013.06;10407984;28;20029;-86
2021/12/04 12:50:50;;;;;;;42.38;20.73;;;;;;;3.91;100.00;99451.44;10443555;28;20029;-90
2021/12/04 12:55:52;;;;;;;45.42;20.90;;;;;;;-1.09;100.00;98762.13;10423404;28;20040;-92
2021/12/04 13:11:43;;;;;;;50.22;20.88;;;;;;;1.82;100.00;99218.72;10432970;28;20025;-92
2021/12/04 13:16:52;;;;;;;48.03;21.55;;;;;;;-1.50;100.00;98706.22;10411447;28;20032;-87
2021/12/04 13:21:59;;;;;;;46.08;21.77;;;;;;;2.16;100.00;99263.13;10427463;28;20086;-92
2021/12/04 13:32:10;;;;;;;52.08;23.92;;;;;;;0.71;100.00;99088.47;10443929;28;20374;-86
2021/12/04 13:37:11;;;;;;;56.33;25.85;;;;;;;0.17;100.00;98993.75;10406457;28;20482;-87
2021/12/04 13:42:12;;;;;;;59.30;26.20;;;;;;;-1.22;100.00;98762.28;10419802;28;20033;-93
2021/12/04 13:47:12;;;;;;;66.40;26.83;;;;;;;0.06;100.00;98941.22;10410662;28;20419;-94
2021/12/04 13:52:32;;;;;;;60.10;24.25;;;;;;;3.52;100.00;99500.25;10408101;28;20067;-90
2021/12/04 13:57:50;;;;;;;58.67;22.48;;;;;;;0.32;100.00;99009.53;10423220;28;20473;-89
2021/12/04 14:02:51;;;;;;;58.28;22.83;;;;;;;0.29;100.00;98936.91;10409660;28;20469;-86
2021/12/04 14:08:02;;;;;;;58.72;23.63;;;;;;;1.18;100.00;99108.28;10425374;28;20071;-89
2021/12/04 14:13:02;;;;;;;57.22;22.67;;;;;;;-2.90;100.00;98460.06;10405866;28;20044;-86
2021/12/04 14:18:05;;;;;;;53.78;21.63;;;;;;;0.81;100.00;99186.22;10408045;28;20028;-91
2021/12/04 14:23:09;;;;;;;45.53;19.85;;;;;;;1.68;100.00;99285.13;10410024;28;20024;-91
2021/12/04 14:28:12;;;;;;;51.63;20.77;;;;;;;1.07;100.00;99032.38;10407435;28;20453;-91
2021/12/04 14:33:15;;;;;;;55.45;19.95;;;;;;;1.35;100.00;99268.34;10406237;28;20043;-85
2021/12/04 14:38:24;;;;;;;42.88;18.48;;;;;;;1.72;100.00;99281.72;10422388;28;20041;-90
2021/12/04 14:43:30;;;;;;;46.63;17.40;;;;;;;2.30;100.00;99311.78;10414739;28;20481;-95
2021/12/04 14:48:39;;;;;;;37.13;16.90;;;;;;;0.62;100.00;99060.06;10406055;28;20021;-87
2021/12/04 14:53:50;;;;;;;34.50;15.38;;;;;;;1.76;100.00;99111.97;10421604;28;20059;-85
2021/12/04 14:58:50;;;;;;;53.83;22.10;;;;;;;0.06;100.00;98897.94;10407516;28;20033;-93
2021/12/04 15:03:55;;;;;;;61.00;25.88;;;;;;;1.65;100.00;99160.81;10437756;28;20021;-92
2021/12/04 15:09:10;;;;;;;67.60;26.17;;;;;;;0.08;100.00;98920.16;10410883;28;20021;-87
2021/12/04 15:14:20;;;;;;;63.23;25.90;;;;;;;-2.35;100.00;98656.69;10413563;28;20028;-87
2021/12/04 15:19:38;;;;;;;63.92;24.45;;;;;;;-1.03;100.00;98836.00;10413388;28;20083;-87
2021/12/04 15:24:43;;;;;;;63.35;27.55;;;;;;;1.05;100.00;99130.16;10470276;28;20021;-87
2021/12/04 15:29:48;;;;;;;79.40;31.30;;;;;;;0.33;100.00;99071.56;10452621;28;20024;-85
2021/12/04 15:35:00;;;;;;;74.63;28.45;;;;;;;1.06;100.00;99242.13;10451665;28;20050;-87
2021/12/04 15:40:00;;;;;;;73.47;27.55;;;;;;;0.69;100.00;99133.91;10428009;28;20045;-87
2021/12/04 15:55:59;;;;;;;82.05;33.08;;;;;;;-0.93;100.00;98860.59;10413908;28;20031;-94
2021/12/04 16:01:05;;;;;;;86.07;31.52;;;;;;;-1.73;100.00;98750.13;10397184;28;20033;-86
2021/12/04 16:06:10;;;;;;;89.40;32.90;;;;;;;-2.35;100.00;98656.69;10413435;28;20413;-87
2021/12/04 16:11:14;;;;;;;90.60;33.23;;;;;;;3.48;100.00;99480.84;10398958;28;20017;-95
2021/12/04 16:16:17;;;;;;;90.22;32.92;;;;;;;1.73;100.00;99393.78;10416088;28;20389;-95
2021/12/04 16:21:18;;;;;;;93.50;37.22;;;;;;;0.60;100.00;99066.53;10395373;28;20036;-88
2021/12/04 16:26:24;;;;;;;100.00;41.08;;;;;;;1.94;100.00;99254.81;10427347;28;20080;-95
2021/12/04 16:31:38;;;;;;;79.28;31.67;;;;;;;1.54;100.00;99295.38;10400417;28;20040;-87
2021/12/04 16:36:44;;;;;;;74.68;31.48;;;;;;;-0.49;100.00;98895.50;10413861;28;20401;-94
2021/12/04 16:41:52;;;;;;;88.95;31.75;;;;;;;1.55;100.00;99229.19;10395537;28;20028;-88
2021/12/04 16:47:06;;;;;;;84.82;31.05;;;;;;;-3.07;100.00;98487.59;10394997;28;20021;-88
2021/12/04 16:58:06;;;;;;;75.75;28.88;;;;;;;-3.72;100.00;98367.06;10419268;28;20115;-90
2021/12/04 17:03:16;;;;;;;;;;;;;;;;;;;;;
2021/12/04 17:08:22;;;;;;;74.80;30.75;;;;;;;-1.16;100.00;98819.97;10420773;28;20028;-96
2021/12/04 17:13:42;;;;;;;87.65;32.58;;;;;;;-0.83;100.00;98855.47;10418241;28;20108;-94
2021/12/04 17:18:51;;;;;;;82.30;29.85;;;;;;;-0.58;100.00;98869.84;10394491;28;20029;-93
2021/12/04 17:24:08;;;;;;;;;;;;;;;;;;;;;
2021/12/04 17:29:42;;;;;;;;;;;;;;;;;;;;;
2021/12/04 17:34:59;;;;;;;88.20;33.35;;;;;;;1.02;100.00;99171.31;10431745;28;20047;-94
2021/12/04 17:40:11;;;;;;;87.63;31.50;;;;;;;0.74;100.00;99136.72;10410028;28;20051;-95
2021/12/04 17:45:28;;;;;;;;;;;;;;;;;;;;;
2021/12/04 17:50:49;;;;;;;74.28;31.48;;;;;;;0.30;100.00;99160.50;10377561;28;20039;-88
2021/12/04 17:55:52;;;;;;;72.50;31.35;;;;;;;-3.56;100.00;98548.53;10392150;28;20021;-95
2021/12/04 18:01:15;;;;;;;71.15;29.00;;;;;;;-1.97;100.00;98692.53;10410200;28;20085;-92
2021/12/04 18:07:17;;;;;;;67.13;27.52;;;;;;;-3.11;100.00;98714.38;10395676;28;20023;-92
2021/12/04 18:13:10;;;;;;;;;;;;;;;;;;;;;
2021/12/04 18:18:36;;;;;;;63.03;26.83;;;;;;;-2.34;100.00;98706.00;10441784;28;20037;-88
2021/12/04 18:23:36;;;;;;;63.63;27.13;;;;;;;0.57;100.00;99280.94;10392107;28;20029;-87
2021/12/04 18:28:40;;;;;;;70.22;28.48;;;;;;;0.56;100.00;99200.75;10389341;28;20047;-89
2021/12/04 18:33:41;;;;;;;60.33;25.95;;;;;;;-0.19;100.00;99079.34;10391011;28;20488;-92
2021/12/04 18:38:42;;;;;;;48.05;20.55;;;;;;;-1.81;100.00;98778.22;10390512;28;20053;-87
2021/12/04 18:43:46;;;;;;;45.70;20.05;;;;;;;-0.03;100.00;99107.66;10406246;28;20052;-90
2021/12/04 18:48:53;;;;;;;46.80;20.27;;;;;;;-0.38;100.00;99094.78;10407626;28;20021;-90
2021/12/04 18:54:26;;;;;;;40.60;17.58;;;;;;;-2.37;100.00;98823.16;10409152;28;20461;-91
2021/12/04 18:59:50;;;;;;;41.47;18.33;;;;;;;-1.56;100.00;98853.69;10413770;28;20048;-92
2021/12/04 19:05:35;;;;;;;45.83;19.20;;;;;;;-2.69;100.00;98807.06;10304567;28;20035;-91
2021/12/04 19:10:57;;;;;;;;;;;;;;;;;;;;;
2021/12/04 19:16:16;;;;;;;;;;;;;;;;;;;;;
2021/12/04 19:21:38;;;;;;;;;;;;;;;;;;;;;
2021/12/04 19:27:15;;;;;;;;;;;;;;;;;;;;;
2021/12/04 19:33:05;;;;;;;;;;;;;;;;;;;;;
2021/12/04 19:50:02;;;;;;;;;;;;;;;;;;;;;
2021/12/04 19:55:28;;;;;;;;;;;;;;;;;;;;;
2021/12/04 20:00:51;;;;;;;33.42;15.38;;;;;;;-2.04;100.00;98749.25;10446282;28;20056;-93
2021/12/04 20:16:56;;;;;;;46.03;21.85;;;;;;;-0.94;100.00;98955.34;10449018;28;20112;-93
2021/12/04 20:22:08;;;;;;;56.63;21.95;;;;;;;0.73;100.00;99414.09;10455679;28;20024;-92
2021/12/04 20:27:24;;;;;;;39.92;15.85;;;;;;;-4.14;100.00;98568.38;10453657;28;20109;-90
2021/12/04 20:38:56;;;;;;;23.73;10.07;;;;;;;-3.03;100.00;98811.03;10446926;28;20041;-89
2021/12/04 21:56:21;;;;;;;;;;;;;;;;;;;;;
2021/12/04 22:24:17;;;;;;;42.90;15.68;;;;;;;-0.25;100.00;99259.59;10472063;28;20043;-89
2021/12/04 23:02:17;;;;;;;50.60;19.57;;;;;;;-1.52;100.00;99068.09;10483441;28;20443;-89
2021/12/04 23:13:06;;;;;;;53.92;20.20;;;;;;;-1.08;100.00;99055.41;10469817;28;20032;-89
2021/12/04 23:18:34;;;;;;;61.85;20.75;;;;;;;0.76;100.00;99465.09;10467882;28;20029;-89
2021/12/04 23:34:32;;;;;;;64.50;20.95;;;;;;;-2.44;100.00;98808.91;10476501;28;20387;-89
